Aviation Digital Data Service (ADDS)

Output produced by TAFs form (0003 UTC 30 July 2015)
found at http://aviationweather.gov/adds/tafs/
 
KGJT 292335Z 3000/3024 30008G18KT P6SM SCT250 
     FM300300 04005KT P6SM SCT250 
     FM300900 11006KT P6SM SCT250 
     FM302000 30008KT P6SM SCT250